Time;durP1;ratioP1;P1;durP2;ratioP2;P2;SDS_P1;SDS_P2;PMS_P1;PMS_P2;Temp;Humidity;BMP_temperature;BMP_pressure;BME280_temperature;BME280_humidity;BME280_pressure;Samples;Min_cycle;Max_cycle;Signal;HPM_P1;HPM_P2
2023/08/04 00:03:52;;;;;;;3.28;1.42;;;24.20;34.80;;;;;;20910631;28;20547;-58
2023/08/04 00:13:53;;;;;;;4.90;1.47;;;24.10;35.90;;;;;;20908445;28;20049;-58
2023/08/04 00:23:58;;;;;;;6.63;1.75;;;23.60;37.20;;;;;;20907851;28;20051;-57
2023/08/04 00:33:59;;;;;;;5.03;1.75;;;23.30;38.00;;;;;;20917069;28;20521;-59
2023/08/04 00:44:00;;;;;;;3.00;1.30;;;23.30;38.30;;;;;;20923136;28;20446;-58
2023/08/04 00:54:01;;;;;;;6.88;1.80;;;23.10;39.00;;;;;;20920849;28;20037;-59
2023/08/04 01:04:01;;;;;;;4.95;1.42;;;22.70;39.90;;;;;;20921378;28;20045;-58
2023/08/04 01:14:03;;;;;;;5.18;1.90;;;22.70;40.20;;;;;;20920044;28;20063;-58
2023/08/04 01:24:03;;;;;;;4.28;1.40;;;22.60;40.60;;;;;;20920237;28;20044;-58
2023/08/04 01:34:04;;;;;;;5.05;1.45;;;22.40;41.00;;;;;;20918241;28;20041;-58
2023/08/04 01:44:05;;;;;;;6.22;1.90;;;22.10;41.90;;;;;;20917462;28;20459;-58
2023/08/04 01:54:06;;;;;;;5.65;1.55;;;21.90;42.40;;;;;;20917997;28;20041;-57
2023/08/04 02:04:07;;;;;;;4.95;1.70;;;21.80;42.80;;;;;;20915794;28;20053;-59
2023/08/04 02:14:08;;;;;;;4.57;2.20;;;21.60;43.20;;;;;;20914975;28;20561;-58
2023/08/04 02:24:08;;;;;;;6.45;1.52;;;21.60;43.10;;;;;;20915959;28;20045;-58
2023/08/04 02:34:09;;;;;;;4.53;1.80;;;21.50;43.30;;;;;;20913510;28;20048;-57
2023/08/04 02:44:10;;;;;;;5.82;1.50;;;21.50;43.50;;;;;;20914284;28;20044;-57
2023/08/04 02:54:10;;;;;;;3.75;1.50;;;21.50;43.60;;;;;;20913287;28;20149;-57
2023/08/04 03:04:12;;;;;;;6.05;1.85;;;21.20;44.10;;;;;;20912998;28;20049;-58
2023/08/04 03:14:13;;;;;;;2.65;1.33;;;21.00;44.70;;;;;;20912632;28;20056;-58
2023/08/04 03:24:14;;;;;;;4.88;1.30;;;21.00;44.40;;;;;;20912153;28;20080;-56
2023/08/04 03:34:14;;;;;;;3.85;1.40;;;20.80;43.90;;;;;;20911694;28;20041;-58
2023/08/04 03:44:15;;;;;;;4.45;1.50;;;20.90;42.60;;;;;;20911316;28;20053;-59
2023/08/04 03:54:16;;;;;;;3.92;1.00;;;20.60;41.00;;;;;;20909195;28;20047;-58
2023/08/04 04:04:17;;;;;;;4.35;1.42;;;20.50;39.40;;;;;;20911349;28;20540;-57
2023/08/04 04:14:17;;;;;;;7.03;1.58;;;20.20;41.30;;;;;;20924298;28;20052;-58
2023/08/04 04:24:18;;;;;;;4.43;1.45;;;20.10;42.90;;;;;;20924823;28;20049;-57
2023/08/04 04:34:19;;;;;;;3.88;1.10;;;20.10;43.80;;;;;;20923279;28;20040;-58
2023/08/04 04:44:20;;;;;;;3.50;1.10;;;20.00;43.20;;;;;;20923037;28;20510;-57
2023/08/04 04:54:20;;;;;;;2.90;1.00;;;19.80;42.20;;;;;;20921808;28;20099;-57
2023/08/04 05:04:21;;;;;;;5.93;1.70;;;19.70;42.30;;;;;;20922520;28;20111;-59
2023/08/04 05:14:22;;;;;;;3.35;1.10;;;19.70;42.90;;;;;;20920833;28;20535;-58
2023/08/04 05:24:23;;;;;;;6.97;1.40;;;19.60;44.20;;;;;;20919084;28;20040;-58
2023/08/04 05:34:23;;;;;;;3.80;1.13;;;19.50;44.20;;;;;;20919034;28;20041;-57
2023/08/04 05:44:24;;;;;;;4.78;1.50;;;19.50;43.80;;;;;;20918998;28;20048;-58
2023/08/04 05:54:25;;;;;;;3.58;1.13;;;19.60;43.70;;;;;;20916563;28;20043;-58
2023/08/04 06:04:26;;;;;;;4.55;1.50;;;19.40;43.40;;;;;;20917308;28;20049;-59
2023/08/04 06:14:27;;;;;;;4.72;1.27;;;19.40;43.80;;;;;;20915276;28;20057;-58
2023/08/04 06:24:28;;;;;;;7.38;1.20;;;19.30;44.00;;;;;;20916171;28;20051;-59
2023/08/04 06:34:29;;;;;;;4.93;1.10;;;;;;;;;;20914409;28;20128;-57
2023/08/04 06:44:31;;;;;;;2.80;0.98;;;;;;;;;;20913898;28;20045;-57
2023/08/04 06:54:31;;;;;;;5.07;1.15;;;20.10;42.20;;;;;;20913575;28;20045;-59
2023/08/04 07:04:32;;;;;;;4.05;1.30;;;20.60;41.30;;;;;;20912389;28;20383;-58
2023/08/04 07:14:33;;;;;;;8.52;1.60;;;21.20;40.40;;;;;;20910599;28;20063;-59
2023/08/04 07:24:34;;;;;;;2.42;0.80;;;21.40;39.00;;;;;;20909791;28;20052;-58
2023/08/04 07:34:34;;;;;;;3.15;1.00;;;21.80;37.90;;;;;;20909576;28;20048;-57
2023/08/04 07:44:35;;;;;;;3.40;0.80;;;22.00;38.30;;;;;;20921907;28;20095;-58
2023/08/04 07:54:37;;;;;;;1.42;0.70;;;22.30;37.60;;;;;;20926296;28;20041;-57
2023/08/04 08:04:37;;;;;;;2.55;0.98;;;22.50;36.30;;;;;;20926150;28;20568;-58
2023/08/04 08:14:38;;;;;;;1.90;0.73;;;22.30;36.40;;;;;;20926486;28;20061;-58
2023/08/04 08:24:39;;;;;;;1.52;0.70;;;22.60;35.60;;;;;;20924836;28;20049;-59
2023/08/04 08:34:39;;;;;;;1.27;0.80;;;22.70;36.00;;;;;;20923931;28;20049;-58
2023/08/04 08:44:40;;;;;;;3.33;1.00;;;23.10;35.40;;;;;;20922649;28;20052;-58
2023/08/04 08:54:43;;;;;;;2.90;0.93;;;23.10;34.70;;;;;;20920768;28;20057;-58
2023/08/04 09:04:44;;;;;;;;;;;23.00;34.40;;;;;;20921270;28;20119;-60
2023/08/04 09:14:55;;;;;;;1.73;0.60;;;23.10;34.50;;;;;;20918357;28;19964;-60
2023/08/04 09:24:59;;;;;;;2.50;0.90;;;23.20;34.70;;;;;;20920847;28;20049;-59
2023/08/04 09:35:05;;;;;;;1.88;0.70;;;23.30;34.40;;;;;;20919535;28;20060;-57
2023/08/04 09:45:06;;;;;;;1.02;0.60;;;23.40;33.90;;;;;;20918594;28;20049;-58
2023/08/04 09:55:10;;;;;;;1.63;0.80;;;23.60;33.70;;;;;;20898711;28;20053;-59
2023/08/04 10:05:11;;;;;;;2.40;0.60;;;23.80;33.40;;;;;;20916121;28;20060;-58
2023/08/04 10:15:12;;;;;;;1.02;0.57;;;24.00;32.70;;;;;;20914384;28;20064;-57
2023/08/04 10:25:15;;;;;;;1.50;0.70;;;24.10;32.20;;;;;;20915085;28;20049;-58
2023/08/04 10:35:25;;;;;;;2.13;0.65;;;24.40;32.00;;;;;;21065105;27;20136;-58
2023/08/04 10:45:50;;;;;;;5.68;0.73;;;24.40;31.60;;;;;;21066711;28;20485;-57
2023/08/04 10:55:54;;;;;;;2.40;0.70;;;24.40;31.20;;;;;;21066349;28;20048;-60
2023/08/04 11:05:55;;;;;;;2.00;0.60;;;24.60;31.20;;;;;;21064535;28;20052;-58
2023/08/04 11:15:56;;;;;;;3.03;0.73;;;24.70;31.40;;;;;;21063125;28;20044;-57
2023/08/04 11:25:58;;;;;;;3.22;0.70;;;25.00;29.80;;;;;;21063201;28;20428;-58
2023/08/04 11:36:03;;;;;;;2.58;1.00;;;25.00;30.20;;;;;;21062701;28;20055;-61
2023/08/04 11:46:06;;;;;;;2.83;1.02;;;25.20;29.80;;;;;;21009600;28;20043;-57
2023/08/04 11:56:08;;;;;;;2.63;0.60;;;25.50;29.60;;;;;;21005046;28;20052;-58
2023/08/04 12:06:22;;;;;;;1.45;0.60;;;25.60;29.70;;;;;;21003106;28;20059;-57
2023/08/04 12:16:27;;;;;;;1.05;0.70;;;25.70;29.00;;;;;;21003634;28;20090;-57
2023/08/04 12:26:28;;;;;;;3.40;0.70;;;26.00;28.70;;;;;;21001404;28;20063;-58
2023/08/04 12:36:29;;;;;;;2.83;0.90;;;26.10;27.90;;;;;;21000421;28;20630;-59
2023/08/04 12:46:30;;;;;;;2.03;0.90;;;26.20;28.00;;;;;;21000796;28;20501;-58
2023/08/04 12:56:30;;;;;;;2.00;1.00;;;26.60;27.50;;;;;;20998387;28;20040;-58
2023/08/04 13:06:32;;;;;;;0.97;0.57;;;26.60;26.70;;;;;;20997885;28;20041;-58
2023/08/04 13:16:33;;;;;;;1.00;0.50;;;26.70;26.90;;;;;;20998548;28;20047;-57
2023/08/04 13:26:34;;;;;;;2.73;0.80;;;26.90;25.90;;;;;;20996051;28;20151;-59
2023/08/04 13:36:34;;;;;;;3.17;1.47;;;27.10;24.70;;;;;;20997424;28;20083;-58
2023/08/04 13:46:35;;;;;;;4.33;0.90;;;27.20;25.10;;;;;;20995925;28;20123;-57
2023/08/04 13:56:39;;;;;;;0.87;0.50;;;27.40;25.10;;;;;;20994411;28;20040;-60
2023/08/04 14:06:39;;;;;;;2.13;0.80;;;27.60;24.70;;;;;;20995073;28;20040;-57
2023/08/04 14:16:40;;;;;;;3.43;1.00;;;27.60;25.40;;;;;;20992777;28;20063;-58
2023/08/04 14:26:41;;;;;;;1.27;0.80;;;27.70;24.90;;;;;;20993041;28;20170;-57
2023/08/04 14:36:42;;;;;;;1.17;0.80;;;27.80;23.40;;;;;;20994779;28;20055;-57
2023/08/04 14:46:46;;;;;;;0.82;0.60;;;28.00;23.20;;;;;;20992795;28;20040;-58
2023/08/04 14:56:49;;;;;;;2.03;0.82;;;28.20;23.20;;;;;;20994246;28;20406;-59
2023/08/04 15:06:50;;;;;;;2.63;0.90;;;28.30;23.20;;;;;;20991761;28;20057;-58
2023/08/04 15:16:51;;;;;;;2.07;1.50;;;28.30;22.60;;;;;;20999745;28;20076;-57
2023/08/04 15:26:51;;;;;;;68.87;8.77;;;28.20;22.30;;;;;;21006152;28;20060;-58
2023/08/04 15:36:52;;;;;;;6.13;1.50;;;28.30;22.40;;;;;;21006827;28;20198;-59
2023/08/04 15:46:53;;;;;;;1.53;0.93;;;28.50;22.00;;;;;;21006196;28;20304;-58
2023/08/04 15:56:53;;;;;;;3.60;1.20;;;28.60;22.00;;;;;;21005996;28;20047;-58
2023/08/04 16:06:54;;;;;;;;;;;28.70;22.30;;;;;;21005489;28;20049;-57
2023/08/04 16:16:55;;;;;;;1.50;0.80;;;28.60;22.10;;;;;;21003749;28;19920;-57
2023/08/04 16:26:57;;;;;;;;;;;28.60;22.60;;;;;;21002941;28;20052;-57
2023/08/04 16:36:58;;;;;;;3.42;0.75;;;28.60;22.70;;;;;;21002444;28;20439;-58
2023/08/04 16:46:58;;;;;;;;;;;28.60;23.00;;;;;;21001679;28;20048;-57
2023/08/04 16:56:59;;;;;;;3.40;1.10;;;28.70;23.20;;;;;;21000735;28;20011;-58
2023/08/04 17:07:00;;;;;;;1.07;0.77;;;28.60;23.50;;;;;;20999441;28;20639;-58
2023/08/04 17:17:01;;;;;;;3.27;1.03;;;28.60;23.40;;;;;;20998996;28;20281;-58
2023/08/04 17:27:01;;;;;;;;;;;28.60;22.90;;;;;;20995878;28;20048;-58
2023/08/04 17:37:02;;;;;;;1.87;1.10;;;28.50;22.60;;;;;;20997496;28;19927;-57
2023/08/04 17:47:03;;;;;;;1.70;1.17;;;28.40;22.10;;;;;;20995590;28;20437;-56
2023/08/04 17:57:04;;;;;;;2.70;1.00;;;28.40;22.10;;;;;;20995128;28;20048;-57
2023/08/04 18:07:05;;;;;;;;;;;28.30;22.90;;;;;;20996332;28;20079;-58
2023/08/04 18:17:06;;;;;;;4.93;1.10;;;28.00;23.20;;;;;;20995191;28;19956;-56
2023/08/04 18:27:06;;;;;;;11.73;10.53;;;27.90;23.50;;;;;;20994584;28;20053;-58
2023/08/04 18:37:07;;;;;;;2.90;1.20;;;27.70;23.70;;;;;;20994482;28;20044;-58
2023/08/04 18:47:08;;;;;;;2.17;1.13;;;27.60;23.70;;;;;;20993230;28;20119;-57
2023/08/04 18:57:09;;;;;;;2.17;1.30;;;27.50;23.80;;;;;;21008027;28;20080;-57
2023/08/04 19:07:10;;;;;;;3.13;1.40;;;27.20;24.00;;;;;;21007713;28;20494;-58
2023/08/04 19:17:11;;;;;;;;;;;27.00;24.30;;;;;;21009533;28;20048;-58
2023/08/04 19:27:15;;;;;;;2.80;1.57;;;26.80;24.30;;;;;;21007798;28;20296;-58
2023/08/04 19:37:15;;;;;;;3.60;1.75;;;26.60;24.10;;;;;;21006636;28;20037;-58
2023/08/04 19:47:16;;;;;;;3.93;1.50;;;26.40;24.60;;;;;;21005892;28;20041;-57
2023/08/04 19:57:17;;;;;;;5.03;2.00;;;26.20;25.50;;;;;;21003643;28;20087;-58
2023/08/04 20:07:18;;;;;;;3.47;1.87;;;26.00;25.90;;;;;;21003516;28;20041;-57
2023/08/04 20:17:19;;;;;;;4.73;1.90;;;25.80;25.90;;;;;;21003030;28;20123;-58
2023/08/04 20:27:19;;;;;;;4.70;1.80;;;25.60;25.60;;;;;;21002297;28;20048;-58
2023/08/04 20:37:20;;;;;;;3.73;1.70;;;25.60;25.50;;;;;;21003101;28;20575;-59
2023/08/04 20:47:21;;;;;;;2.83;1.40;;;25.30;25.90;;;;;;21002034;28;20067;-57
2023/08/04 20:57:21;;;;;;;3.20;1.70;;;25.10;26.60;;;;;;21001084;28;20177;-58
2023/08/04 21:07:22;;;;;;;2.60;1.63;;;25.00;27.20;;;;;;20998514;28;20055;-56
2023/08/04 21:17:23;;;;;;;3.40;1.50;;;24.70;27.80;;;;;;20998352;28;20064;-59
2023/08/04 21:27:24;;;;;;;5.38;1.70;;;24.60;28.20;;;;;;20997892;28;20405;-57
2023/08/04 21:37:25;;;;;;;4.30;1.70;;;24.60;28.60;;;;;;20998226;28;20128;-58
2023/08/04 21:47:26;;;;;;;3.87;1.67;;;24.40;28.90;;;;;;20996302;28;20044;-60
2023/08/04 21:57:27;;;;;;;5.35;1.50;;;24.40;29.10;;;;;;20996170;28;20494;-58
2023/08/04 22:07:28;;;;;;;3.20;1.60;;;24.20;29.40;;;;;;20994081;28;20049;-57
2023/08/04 22:17:28;;;;;;;2.95;1.25;;;24.20;29.80;;;;;;20994878;28;20505;-57
2023/08/04 22:27:29;;;;;;;3.58;1.40;;;24.10;30.40;;;;;;20994003;28;20415;-59
2023/08/04 22:37:30;;;;;;;4.20;1.30;;;23.80;30.90;;;;;;20994880;28;20052;-57
2023/08/04 22:47:31;;;;;;;3.20;1.55;;;23.70;31.40;;;;;;20994188;28;20106;-57
2023/08/04 22:57:31;;;;;;;3.95;1.98;;;23.70;31.90;;;;;;20993920;28;20044;-56
2023/08/04 23:07:32;;;;;;;5.60;2.42;;;23.50;32.40;;;;;;20992930;28;20056;-57
2023/08/04 23:17:33;;;;;;;2.88;1.58;;;23.40;32.70;;;;;;20992367;28;20071;-57
2023/08/04 23:27:33;;;;;;;5.50;1.75;;;23.30;33.10;;;;;;20990444;28;20088;-57
2023/08/04 23:37:34;;;;;;;4.45;1.20;;;23.20;33.60;;;;;;20997232;28;20516;-57
2023/08/04 23:47:35;;;;;;;6.15;1.73;;;23.10;34.70;;;;;;21005113;28;20452;-57
2023/08/04 23:57:36;;;;;;;3.95;1.55;;;22.80;35.40;;;;;;21004348;28;20132;-56
